Time;durP1;ratioP1;P1;durP2;ratioP2;P2;SDS_P1;SDS_P2;PMS_P1;PMS_P2;Temp;Humidity;BMP_temperature;BMP_pressure;BME280_temperature;BME280_humidity;BME280_pressure;Samples;Min_cycle;Max_cycle;Signal;HPM_P1;HPM_P2
2022/05/16 00:00:14;;;;;;;14.98;4.97;;;12.90;99.90;;;;;;6125981;23;20074;-86
2022/05/16 00:02:41;;;;;;;13.25;4.95;;;12.90;99.90;;;;;;6126354;23;20018;-86
2022/05/16 00:05:07;;;;;;;16.02;5.32;;;12.90;99.90;;;;;;6126924;23;20334;-86
2022/05/16 00:07:32;;;;;;;12.38;4.72;;;13.00;99.90;;;;;;6124236;23;20054;-86
2022/05/16 00:09:58;;;;;;;11.82;4.47;;;12.90;99.90;;;;;;6126558;23;20466;-86
2022/05/16 00:12:24;;;;;;;13.38;5.50;;;12.90;99.90;;;;;;6126960;23;20022;-86
2022/05/16 00:14:50;;;;;;;13.63;5.38;;;12.90;99.90;;;;;;6123569;23;20026;-85
2022/05/16 00:17:16;;;;;;;13.63;5.10;;;12.80;99.90;;;;;;6127045;23;20037;-85
2022/05/16 00:19:42;;;;;;;13.68;5.05;;;12.80;99.90;;;;;;6125930;23;20465;-85
2022/05/16 00:22:09;;;;;;;15.05;4.65;;;12.80;99.90;;;;;;6124235;23;20081;-85
2022/05/16 00:24:34;;;;;;;13.15;5.53;;;12.70;99.90;;;;;;6100575;23;20029;-85
2022/05/16 00:27:02;;;;;;;11.18;4.72;;;12.70;99.90;;;;;;6125389;23;20014;-85
2022/05/16 00:29:28;;;;;;;13.63;5.05;;;12.70;99.90;;;;;;6123729;23;20033;-86
2022/05/16 00:31:55;;;;;;;15.45;5.38;;;12.70;99.90;;;;;;6124704;23;20014;-86
2022/05/16 00:34:21;;;;;;;14.63;4.90;;;12.60;99.90;;;;;;6126015;23;20040;-86
2022/05/16 00:36:47;;;;;;;12.05;5.10;;;12.60;99.90;;;;;;6124508;23;20062;-86
2022/05/16 00:39:14;;;;;;;13.82;5.22;;;12.60;99.90;;;;;;6127243;23;20440;-86
2022/05/16 00:41:42;;;;;;;12.68;4.88;;;12.60;99.90;;;;;;6124610;23;20485;-86
2022/05/16 00:44:07;;;;;;;13.00;5.03;;;12.50;99.90;;;;;;6127539;23;20029;-86
2022/05/16 00:46:33;;;;;;;14.30;4.93;;;12.50;99.90;;;;;;6127169;23;20022;-86
2022/05/16 00:49:01;;;;;;;12.30;4.47;;;12.50;99.90;;;;;;6126488;23;20118;-86
2022/05/16 00:51:34;;;;;;;13.10;4.97;;;12.50;99.90;;;;;;6127153;23;20022;-86
2022/05/16 00:54:09;;;;;;;12.52;5.05;;;12.50;99.90;;;;;;6125683;23;20347;-86
2022/05/16 00:56:35;;;;;;;12.93;4.60;;;12.40;99.90;;;;;;6127253;23;20021;-86
2022/05/16 00:59:01;;;;;;;13.90;4.45;;;12.40;99.90;;;;;;6127454;23;20010;-86
2022/05/16 01:06:57;;;;;;;13.43;4.82;;;12.40;99.90;;;;;;6127135;23;20245;-86
2022/05/16 01:09:23;;;;;;;10.35;4.22;;;12.40;99.90;;;;;;6127286;23;20097;-86
2022/05/16 01:11:50;;;;;;;11.10;4.63;;;12.40;99.90;;;;;;6124507;23;20010;-86
2022/05/16 01:14:54;;;;;;;11.88;4.40;;;12.40;99.90;;;;;;6125425;23;20021;-86
2022/05/16 01:17:20;;;;;;;14.73;4.13;;;12.40;99.90;;;;;;6126162;23;20018;-85
2022/05/16 01:19:47;;;;;;;12.30;5.10;;;12.40;99.90;;;;;;6126911;23;20120;-86
2022/05/16 01:22:33;;;;;;;12.63;4.93;;;12.40;99.90;;;;;;6127340;23;20084;-86
2022/05/16 01:25:07;;;;;;;13.15;4.57;;;12.40;99.90;;;;;;6125519;23;20021;-86
2022/05/16 01:27:41;;;;;;;11.85;3.97;;;12.40;99.90;;;;;;6126888;23;20447;-86
2022/05/16 01:30:08;;;;;;;11.50;4.15;;;12.40;99.90;;;;;;6125593;23;20443;-86
2022/05/16 01:32:33;;;;;;;11.70;4.28;;;12.40;99.90;;;;;;6125771;23;20024;-86
2022/05/16 01:34:59;;;;;;;12.20;4.18;;;12.40;99.90;;;;;;6125106;23;20108;-86
2022/05/16 01:38:18;;;;;;;13.52;4.35;;;12.40;99.90;;;;;;6126906;23;20018;-86
2022/05/16 01:40:10;;;;;;;11.40;4.15;;;12.40;99.90;;;;;;6125109;23;20073;-86
2022/05/16 01:42:36;;;;;;;14.07;4.38;;;12.40;99.90;;;;;;6125168;23;20342;-85
2022/05/16 01:45:01;;;;;;;12.18;4.18;;;12.40;99.90;;;;;;6126131;23;20014;-85
2022/05/16 01:47:27;;;;;;;14.27;4.05;;;12.40;99.90;;;;;;6128132;23;20053;-86
2022/05/16 01:49:52;;;;;;;12.18;4.00;;;12.40;99.90;;;;;;6125489;23;20014;-87
2022/05/16 01:52:18;;;;;;;10.60;4.10;;;12.30;99.90;;;;;;6125089;23;20021;-86
2022/05/16 01:54:43;;;;;;;11.80;4.00;;;12.30;99.90;;;;;;6128282;23;20018;-87
2022/05/16 01:57:09;;;;;;;12.75;4.30;;;12.30;99.90;;;;;;6126685;23;20022;-86
2022/05/16 01:59:35;;;;;;;10.88;4.00;;;12.30;99.90;;;;;;6125642;23;20025;-86
2022/05/16 02:02:00;;;;;;;11.90;4.00;;;12.30;99.90;;;;;;6127722;23;20022;-86
2022/05/16 02:04:26;;;;;;;10.75;3.45;;;12.30;99.90;;;;;;6126338;23;20395;-86
2022/05/16 02:06:53;;;;;;;10.98;3.80;;;12.30;99.90;;;;;;6126605;23;20021;-86
2022/05/16 02:09:18;;;;;;;11.43;3.70;;;12.30;99.90;;;;;;6127711;23;20033;-86
2022/05/16 02:11:44;;;;;;;12.05;3.50;;;12.30;99.90;;;;;;6126926;23;20021;-86
2022/05/16 02:14:09;;;;;;;11.75;3.47;;;12.30;99.90;;;;;;6126706;23;20018;-86
2022/05/16 02:16:35;;;;;;;10.73;3.53;;;12.30;99.90;;;;;;6128067;23;20029;-86
2022/05/16 02:19:00;;;;;;;12.63;3.80;;;12.30;99.90;;;;;;6127514;23;20021;-86
2022/05/16 02:26:55;;;;;;;11.20;3.47;;;12.20;99.90;;;;;;6129767;23;20057;-85
2022/05/16 02:29:21;;;;;;;10.68;3.80;;;12.20;99.90;;;;;;6126594;23;20022;-86
2022/05/16 02:31:47;;;;;;;11.43;3.60;;;12.20;99.90;;;;;;6124554;23;20465;-86
2022/05/16 02:34:13;;;;;;;11.13;3.97;;;12.20;99.90;;;;;;6127954;23;20029;-86
2022/05/16 02:36:39;;;;;;;13.13;3.58;;;12.20;99.90;;;;;;6129246;23;20013;-86
2022/05/16 02:39:04;;;;;;;11.38;3.80;;;12.10;99.90;;;;;;6125889;23;20076;-86
2022/05/16 02:41:30;;;;;;;10.68;3.42;;;12.10;99.90;;;;;;6125356;23;20017;-86
2022/05/16 02:43:56;;;;;;;10.38;3.42;;;12.10;99.90;;;;;;6127025;23;20014;-86
2022/05/16 02:46:22;;;;;;;12.90;3.97;;;12.10;99.90;;;;;;6127304;23;20018;-86
2022/05/16 02:48:47;;;;;;;10.60;3.55;;;12.10;99.90;;;;;;6124165;23;20037;-86
2022/05/16 02:51:13;;;;;;;10.40;3.60;;;12.10;99.90;;;;;;6127225;23;20022;-86
2022/05/16 02:53:38;;;;;;;12.07;3.63;;;12.00;99.90;;;;;;6124947;23;20022;-85
2022/05/16 02:56:04;;;;;;;11.07;3.40;;;12.00;99.90;;;;;;6125973;23;20021;-86
2022/05/16 02:58:30;;;;;;;11.32;3.67;;;12.00;99.90;;;;;;6126467;23;20379;-86
2022/05/16 03:00:56;;;;;;;11.85;3.60;;;12.00;99.90;;;;;;6125321;23;20022;-86
2022/05/16 03:03:22;;;;;;;10.13;3.20;;;11.90;99.90;;;;;;6126039;23;20020;-86
2022/05/16 03:05:48;;;;;;;10.52;3.58;;;12.00;99.90;;;;;;6126036;23;20054;-86
2022/05/16 03:08:13;;;;;;;11.25;3.40;;;11.90;99.90;;;;;;6126139;23;20101;-86
2022/05/16 03:10:39;;;;;;;10.13;3.47;;;11.90;99.90;;;;;;6122237;23;20017;-86
2022/05/16 03:13:04;;;;;;;10.32;3.40;;;11.90;99.90;;;;;;6124846;23;20103;-87
2022/05/16 03:15:30;;;;;;;8.63;3.20;;;11.90;99.90;;;;;;6124612;23;20024;-87
2022/05/16 03:17:56;;;;;;;10.60;3.65;;;11.90;99.90;;;;;;6123305;23;20046;-87
2022/05/16 03:20:22;;;;;;;9.77;3.40;;;11.80;99.90;;;;;;6126070;23;20032;-87
2022/05/16 03:22:48;;;;;;;12.63;3.63;;;11.80;99.90;;;;;;6125341;23;20446;-87
2022/05/16 03:25:13;;;;;;;11.32;3.42;;;11.80;99.90;;;;;;6123407;23;20021;-87
2022/05/16 03:27:39;;;;;;;10.25;3.47;;;11.80;99.90;;;;;;6123739;23;20079;-87
2022/05/16 03:30:08;;;;;;;10.27;3.20;;;11.80;99.90;;;;;;6126391;23;20014;-87
2022/05/16 03:32:33;;;;;;;10.93;3.42;;;11.80;99.90;;;;;;6123540;23;20439;-87
2022/05/16 03:34:59;;;;;;;10.90;3.28;;;11.70;99.90;;;;;;6125894;23;20021;-86
2022/05/16 03:37:24;;;;;;;9.95;4.20;;;11.70;99.90;;;;;;6125396;23;20320;-87
2022/05/16 03:42:34;;;;;;;11.27;3.28;;;11.70;99.90;;;;;;6124747;23;20104;-86
2022/05/16 03:45:01;;;;;;;10.75;3.47;;;11.70;99.90;;;;;;6144697;23;20104;-86
2022/05/16 03:47:27;;;;;;;11.18;3.45;;;11.70;99.90;;;;;;6154489;23;20033;-87
2022/05/16 03:49:52;;;;;;;13.45;3.97;;;11.70;99.90;;;;;;6156290;23;20010;-87
2022/05/16 03:52:18;;;;;;;11.43;3.20;;;11.70;99.90;;;;;;6154271;23;20021;-87
2022/05/16 03:54:44;;;;;;;11.45;3.65;;;11.70;99.90;;;;;;6156112;23;20093;-87
2022/05/16 03:57:10;;;;;;;11.13;3.40;;;11.70;99.90;;;;;;6154665;23;20097;-87
2022/05/16 03:59:36;;;;;;;11.70;3.22;;;11.80;99.90;;;;;;6154836;23;20442;-87
2022/05/16 04:02:02;;;;;;;10.73;3.38;;;11.80;99.90;;;;;;6153168;23;20017;-87
2022/05/16 04:04:28;;;;;;;11.40;3.42;;;11.80;99.90;;;;;;6153894;23;20350;-87
2022/05/16 04:06:54;;;;;;;10.70;3.40;;;11.80;99.90;;;;;;6151594;23;20017;-87
2022/05/16 04:09:20;;;;;;;9.75;3.15;;;11.80;99.90;;;;;;6154731;23;20092;-87
2022/05/16 04:11:45;;;;;;;10.50;3.45;;;11.90;99.90;;;;;;6153192;23;20037;-87
2022/05/16 04:14:11;;;;;;;8.90;3.53;;;11.90;99.90;;;;;;6156700;23;20517;-87
2022/05/16 04:16:37;;;;;;;9.52;3.00;;;11.90;99.90;;;;;;6157731;23;20017;-87
2022/05/16 04:19:06;;;;;;;14.20;3.42;;;12.00;99.90;;;;;;6156590;23;20323;-87
2022/05/16 04:21:32;;;;;;;10.85;3.65;;;12.00;99.90;;;;;;6162852;23;20024;-87
2022/05/16 04:23:57;;;;;;;11.23;3.20;;;12.00;99.90;;;;;;6159459;23;20025;-87
2022/05/16 04:26:23;;;;;;;11.50;3.00;;;12.00;99.90;;;;;;6158223;23;20013;-87
2022/05/16 04:28:49;;;;;;;12.25;3.47;;;12.10;99.90;;;;;;6158546;23;20017;-87
2022/05/16 04:31:15;;;;;;;12.50;3.42;;;12.00;99.90;;;;;;6162744;23;20096;-86
2022/05/16 04:33:40;;;;;;;10.00;3.30;;;12.10;99.90;;;;;;6158064;23;20013;-88
2022/05/16 04:36:06;;;;;;;9.95;3.33;;;12.10;99.90;;;;;;6159079;23;20113;-87
2022/05/16 04:38:32;;;;;;;10.55;3.00;;;12.20;99.90;;;;;;6158695;23;20096;-86
2022/05/16 04:43:41;;;;;;;10.73;3.20;;;12.10;99.90;;;;;;6163783;23;20021;-87
2022/05/16 04:46:08;;;;;;;9.88;3.17;;;12.20;99.90;;;;;;6189128;23;20036;-87
2022/05/16 04:48:34;;;;;;;10.75;3.22;;;12.20;99.90;;;;;;6161870;23;20017;-87
2022/05/16 04:51:00;;;;;;;9.95;3.20;;;12.20;99.90;;;;;;6162048;23;20009;-86
2022/05/16 04:53:25;;;;;;;10.30;3.25;;;12.30;99.90;;;;;;6189243;23;20074;-87
2022/05/16 04:55:52;;;;;;;10.18;3.17;;;12.30;99.90;;;;;;6188898;23;20437;-88
2022/05/16 04:58:17;;;;;;;8.30;3.00;;;12.30;99.90;;;;;;6163595;23;20040;-87
2022/05/16 05:00:43;;;;;;;10.55;3.67;;;12.40;99.90;;;;;;6189743;23;20338;-86
2022/05/16 05:03:08;;;;;;;11.23;3.25;;;12.40;99.90;;;;;;6187524;23;20024;-87
2022/05/16 05:05:35;;;;;;;11.75;3.40;;;12.40;99.90;;;;;;6188253;23;20326;-87
2022/05/16 05:08:01;;;;;;;10.90;3.30;;;12.40;99.90;;;;;;6187918;23;20447;-87
2022/05/16 05:16:10;;;;;;;11.48;3.30;;;12.60;99.90;;;;;;6160108;23;19951;-87
2022/05/16 05:18:37;;;;;;;11.35;3.35;;;12.60;99.90;;;;;;6187571;23;20013;-87
2022/05/16 05:21:03;;;;;;;9.80;3.40;;;12.70;99.90;;;;;;6161028;23;20017;-87
2022/05/16 05:23:28;;;;;;;11.18;4.00;;;12.70;99.90;;;;;;6187623;23;20024;-87
2022/05/16 05:25:57;;;;;;;9.43;3.33;;;12.80;99.90;;;;;;6160463;23;20049;-95
2022/05/16 05:28:22;;;;;;;11.98;3.45;;;12.80;99.90;;;;;;6162977;23;20035;-90
2022/05/16 05:30:48;;;;;;;12.23;3.55;;;12.80;99.90;;;;;;6186666;23;20084;-89
2022/05/16 05:33:13;;;;;;;10.05;3.10;;;12.90;99.90;;;;;;6187638;23;20025;-91
2022/05/16 05:35:39;;;;;;;14.15;3.78;;;13.30;99.90;;;;;;6186078;23;20013;-92
2022/05/16 05:38:17;;;;;;;9.77;3.40;;;13.30;99.90;;;;;;6160622;23;20019;-89
2022/05/16 05:40:43;;;;;;;12.65;3.42;;;13.10;99.90;;;;;;6159982;23;20017;-90
2022/05/16 05:43:09;;;;;;;9.88;3.45;;;13.20;99.90;;;;;;6187250;23;20024;-91
2022/05/16 05:45:36;;;;;;;13.43;3.70;;;13.40;99.90;;;;;;6186037;23;20009;-93
2022/05/16 05:48:01;;;;;;;11.15;3.35;;;13.30;99.90;;;;;;6186392;23;20025;-93
2022/05/16 05:50:28;;;;;;;10.90;3.50;;;14.10;99.90;;;;;;6188320;23;20016;-95
2022/05/16 05:52:53;;;;;;;11.18;3.40;;;13.60;99.90;;;;;;6187127;23;20040;-90
2022/05/16 05:55:19;;;;;;;9.77;3.55;;;13.60;99.90;;;;;;6187787;23;20017;-91
2022/05/16 05:57:45;;;;;;;11.40;3.55;;;13.80;99.90;;;;;;6188291;23;20057;-92
2022/05/16 06:00:13;;;;;;;10.93;3.53;;;13.90;99.90;;;;;;6160788;23;20068;-90
2022/05/16 06:02:40;;;;;;;9.63;3.78;;;14.00;99.90;;;;;;6158824;23;20021;-93
2022/05/16 06:05:09;;;;;;;10.07;3.70;;;14.20;99.90;;;;;;6161261;23;20017;-96
2022/05/16 06:07:47;;;;;;;15.85;3.88;;;14.40;99.90;;;;;;6160770;23;20017;-95
2022/05/16 06:10:13;;;;;;;11.18;3.40;;;15.10;99.90;;;;;;6161050;23;20040;-95
2022/05/16 06:12:44;;;;;;;10.85;3.70;;;14.90;99.90;;;;;;6194567;23;20311;-92
2022/05/16 06:15:13;;;;;;;8.90;3.30;;;14.90;99.90;;;;;;6162016;23;20031;-94
2022/05/16 06:17:51;;;;;;;10.68;3.22;;;14.50;99.90;;;;;;6175845;23;20017;-93
2022/05/16 06:20:26;;;;;;;8.80;3.30;;;14.60;99.90;;;;;;6162872;23;20028;-92
2022/05/16 06:23:04;;;;;;;10.75;3.83;;;14.70;99.90;;;;;;6160767;23;20068;-94
2022/05/16 06:25:45;;;;;;;11.65;3.60;;;14.90;99.90;;;;;;6174994;23;20017;-91
2022/05/16 06:28:47;;;;;;;9.73;3.17;;;15.50;99.90;;;;;;6192718;23;20056;-91
2022/05/16 06:31:12;;;;;;;11.20;3.28;;;14.80;99.90;;;;;;6186897;23;20484;-88
2022/05/16 06:33:38;;;;;;;10.93;3.25;;;15.00;99.90;;;;;;6184884;23;20025;-87
2022/05/16 06:36:05;;;;;;;12.18;3.53;;;15.40;99.90;;;;;;6159636;23;20441;-88
2022/05/16 06:38:33;;;;;;;9.98;3.35;;;15.50;99.90;;;;;;6159534;23;20381;-88
2022/05/16 06:40:59;;;;;;;13.23;3.75;;;15.60;99.90;;;;;;6158085;23;20031;-87
2022/05/16 06:43:28;;;;;;;12.02;3.30;;;15.90;99.90;;;;;;6185570;23;20021;-87
2022/05/16 06:45:54;;;;;;;11.50;3.20;;;15.90;99.90;;;;;;6158910;23;20338;-88
2022/05/16 06:48:20;;;;;;;10.20;3.53;;;16.00;99.90;;;;;;6186004;23;20088;-85
2022/05/16 06:50:47;;;;;;;11.70;3.55;;;16.50;99.90;;;;;;6186117;23;20013;-87
2022/05/16 06:53:20;;;;;;;12.50;3.60;;;16.30;99.90;;;;;;6185679;23;20021;-85
2022/05/16 06:55:46;;;;;;;10.90;3.40;;;16.50;99.90;;;;;;6184832;23;20017;-86
2022/05/16 06:58:20;;;;;;;12.80;3.20;;;16.80;99.90;;;;;;6186121;23;20021;-85
2022/05/16 07:00:52;;;;;;;10.60;3.15;;;16.70;99.90;;;;;;6185739;23;20020;-85
2022/05/16 07:03:21;;;;;;;9.82;3.42;;;16.80;99.90;;;;;;6185127;23;20028;-85
2022/05/16 07:05:48;;;;;;;9.60;2.95;;;16.90;99.90;;;;;;6185223;23;20016;-85
2022/05/16 07:08:14;;;;;;;10.27;3.42;;;17.40;99.90;;;;;;6185979;23;20044;-85
2022/05/16 07:10:40;;;;;;;9.68;3.55;;;17.20;99.90;;;;;;6184406;23;20020;-85
2022/05/16 07:13:06;;;;;;;10.10;3.13;;;17.50;99.90;;;;;;6186704;23;20092;-85
2022/05/16 07:15:31;;;;;;;11.32;4.10;;;17.90;99.90;;;;;;6185341;23;20056;-85
2022/05/16 07:17:57;;;;;;;10.35;3.15;;;17.70;99.90;;;;;;6159314;23;20017;-85
2022/05/16 07:20:22;;;;;;;10.73;3.40;;;17.90;99.90;;;;;;6185933;23;20083;-86
2022/05/16 07:22:49;;;;;;;12.18;3.22;;;18.10;99.90;;;;;;6158485;23;20088;-86
2022/05/16 07:25:17;;;;;;;8.85;2.92;;;18.20;99.90;;;;;;6185763;23;20326;-86
2022/05/16 07:28:08;;;;;;;10.07;3.42;;;18.30;99.90;;;;;;6185639;23;20009;-85
2022/05/16 07:30:47;;;;;;;10.70;3.30;;;18.30;99.90;;;;;;6158407;23;20028;-87
2022/05/16 07:33:17;;;;;;;11.75;3.30;;;18.70;99.90;;;;;;6159890;23;20345;-86
2022/05/16 07:35:43;;;;;;;11.95;3.60;;;18.30;99.90;;;;;;6186081;23;20111;-87
2022/05/16 07:38:27;;;;;;;10.63;3.30;;;19.50;99.90;;;;;;6185605;23;20442;-86
2022/05/16 07:40:53;;;;;;;13.60;3.40;;;19.00;99.90;;;;;;6185033;23;20323;-84
2022/05/16 07:43:20;;;;;;;10.00;3.05;;;19.60;99.90;;;;;;6186346;23;20016;-85
2022/05/16 07:45:46;;;;;;;9.82;3.20;;;19.40;99.90;;;;;;6185092;23;20017;-85
2022/05/16 07:48:12;;;;;;;10.45;3.33;;;19.80;99.90;;;;;;6185772;23;20025;-85
2022/05/16 07:50:38;;;;;;;11.45;3.60;;;20.20;99.90;;;;;;6185163;23;20509;-85
2022/05/16 07:53:11;;;;;;;12.93;3.35;;;19.90;99.90;;;;;;6186451;23;20063;-86
2022/05/16 07:55:44;;;;;;;11.27;3.00;;;20.20;99.90;;;;;;6159358;23;20353;-86
2022/05/16 07:58:10;;;;;;;;;;;20.00;99.90;;;;;;6188286;23;20067;-86
2022/05/16 08:00:37;;;;;;;12.07;3.20;;;20.10;99.90;;;;;;6186633;23;19924;-86
2022/05/16 08:03:04;;;;;;;11.20;3.33;;;20.10;99.90;;;;;;6185434;23;20017;-86
2022/05/16 08:05:30;;;;;;;12.57;3.20;;;20.20;99.90;;;;;;6185293;23;20009;-86
2022/05/16 08:10:41;;;;;;;10.98;3.88;;;20.30;99.90;;;;;;6188625;23;20017;-86
2022/05/16 08:13:09;;;;;;;10.38;3.22;;;20.40;99.90;;;;;;6184556;23;20017;-86
2022/05/16 08:15:38;;;;;;;11.15;2.85;;;20.50;99.90;;;;;;6185662;23;20017;-86
2022/05/16 08:18:05;;;;;;;10.60;3.30;;;20.60;99.90;;;;;;6185483;23;20055;-86
2022/05/16 08:20:32;;;;;;;11.00;3.10;;;20.90;99.90;;;;;;6187373;23;20446;-85
2022/05/16 08:22:57;;;;;;;10.07;3.25;;;21.00;99.90;;;;;;6158370;23;20017;-86
2022/05/16 08:25:23;;;;;;;9.15;3.25;;;21.20;99.90;;;;;;6158715;23;20051;-85
2022/05/16 08:27:52;;;;;;;10.35;3.15;;;21.30;99.90;;;;;;6157484;23;20017;-85
2022/05/16 08:30:19;;;;;;;10.02;2.83;;;21.90;99.90;;;;;;6158848;23;20027;-86
2022/05/16 08:32:45;;;;;;;11.57;3.30;;;21.70;99.90;;;;;;6183787;23;20017;-86
2022/05/16 08:35:12;;;;;;;9.35;3.03;;;21.90;99.90;;;;;;6185653;23;20021;-86
2022/05/16 08:40:30;;;;;;;11.13;3.30;;;22.30;99.90;;;;;;6184109;23;20342;-85
2022/05/16 08:43:15;;;;;;;10.65;3.10;;;22.80;99.90;;;;;;6158431;23;20100;-86
2022/05/16 08:45:51;;;;;;;12.32;3.40;;;22.70;99.30;;;;;;6158621;23;20096;-86
2022/05/16 08:48:28;;;;;;;12.38;3.63;;;23.30;99.70;;;;;;6184628;23;20017;-85
2022/05/16 08:51:13;;;;;;;9.23;2.95;;;22.80;99.20;;;;;;6158550;23;20402;-86
2022/05/16 08:53:58;;;;;;;10.20;3.22;;;22.80;99.40;;;;;;6158185;23;20043;-85
2022/05/16 08:56:30;;;;;;;11.95;3.58;;;23.50;98.60;;;;;;6158771;23;20382;-86
2022/05/16 08:59:01;;;;;;;10.23;3.25;;;22.90;99.10;;;;;;6184682;23;20017;-86
2022/05/16 09:01:35;;;;;;;10.30;3.47;;;22.90;98.70;;;;;;6160183;23;20015;-85
2022/05/16 09:04:12;;;;;;;9.85;3.15;;;22.90;98.70;;;;;;6186925;23;20013;-85
2022/05/16 09:07:05;;;;;;;9.30;3.28;;;23.10;98.50;;;;;;6161138;23;20088;-86
2022/05/16 09:10:00;;;;;;;9.60;3.40;;;23.20;99.00;;;;;;6160006;23;20028;-86
2022/05/16 09:12:33;;;;;;;9.30;2.97;;;23.40;98.50;;;;;;6187065;23;20024;-86
2022/05/16 09:15:17;;;;;;;12.50;3.08;;;23.60;98.50;;;;;;6185808;23;20083;-85
2022/05/16 09:18:07;;;;;;;11.05;3.65;;;23.90;98.60;;;;;;6186549;23;20100;-86
2022/05/16 09:20:53;;;;;;;11.52;3.45;;;24.10;97.50;;;;;;6160893;23;20024;-85
2022/05/16 09:23:28;;;;;;;9.25;3.28;;;24.20;97.50;;;;;;6159659;23;20035;-86
2022/05/16 09:26:06;;;;;;;13.13;3.30;;;24.60;97.20;;;;;;6186112;23;20465;-86
2022/05/16 09:28:34;;;;;;;11.23;3.30;;;24.30;96.40;;;;;;6160286;23;20349;-86
2022/05/16 09:31:11;;;;;;;11.00;3.38;;;24.60;96.60;;;;;;6186124;23;20013;-85
2022/05/16 09:33:47;;;;;;;11.45;3.30;;;24.20;96.00;;;;;;6186818;23;20028;-85
2022/05/16 09:36:18;;;;;;;10.48;3.00;;;24.20;96.50;;;;;;6186493;23;20020;-85
2022/05/16 09:38:46;;;;;;;11.70;3.45;;;24.10;96.70;;;;;;6186493;23;20017;-86
2022/05/16 09:41:35;;;;;;;11.27;3.47;;;24.30;96.90;;;;;;6186312;23;20345;-86
2022/05/16 09:44:10;;;;;;;9.70;3.47;;;24.30;96.70;;;;;;6185299;23;20080;-85
2022/05/16 09:46:43;;;;;;;9.90;2.90;;;24.50;96.80;;;;;;6160744;23;20071;-86
2022/05/16 09:49:12;;;;;;;;;;;24.60;96.50;;;;;;6160474;23;20021;-86
2022/05/16 09:51:44;;;;;;;9.65;3.22;;;24.80;96.30;;;;;;6185924;23;19944;-85
2022/05/16 09:54:31;;;;;;;11.35;3.20;;;25.00;96.30;;;;;;6160447;23;20021;-86
2022/05/16 09:57:08;;;;;;;10.90;3.40;;;25.10;96.00;;;;;;6186928;23;20380;-86
2022/05/16 09:59:44;;;;;;;10.70;3.17;;;25.10;95.30;;;;;;6186847;23;20311;-85
2022/05/16 10:02:24;;;;;;;9.35;3.20;;;25.10;95.70;;;;;;6187185;23;20464;-86
2022/05/16 10:05:11;;;;;;;11.05;3.28;;;25.10;94.70;;;;;;6185712;23;20087;-86
2022/05/16 10:07:46;;;;;;;8.95;3.15;;;25.20;94.60;;;;;;6187643;23;20037;-85
2022/05/16 10:10:36;;;;;;;11.38;3.30;;;25.10;93.80;;;;;;6186514;23;20520;-86
2022/05/16 10:13:16;;;;;;;11.52;3.80;;;25.40;95.00;;;;;;6173747;23;20095;-86
2022/05/16 10:15:43;;;;;;;10.70;3.47;;;26.10;94.30;;;;;;6162655;23;20032;-86
2022/05/16 10:18:24;;;;;;;10.38;3.50;;;25.40;94.30;;;;;;6159445;23;20013;-85
2022/05/16 10:21:01;;;;;;;12.55;3.60;;;25.80;93.30;;;;;;6159226;23;20017;-85
2022/05/16 10:23:41;;;;;;;11.85;3.80;;;26.20;92.80;;;;;;6186535;23;20013;-86
2022/05/16 10:26:12;;;;;;;14.57;3.80;;;26.90;93.60;;;;;;6159674;23;20028;-85
2022/05/16 10:28:41;;;;;;;11.15;3.92;;;27.30;93.40;;;;;;6186471;23;20024;-85
2022/05/16 10:34:12;;;;;;;10.65;3.80;;;27.80;91.30;;;;;;6185455;23;20100;-86
2022/05/16 10:36:38;;;;;;;13.57;3.88;;;28.00;91.30;;;;;;6186554;23;20019;-85
2022/05/16 10:39:13;;;;;;;12.63;3.83;;;28.10;90.70;;;;;;6185670;23;20021;-86
2022/05/16 10:41:54;;;;;;;9.57;3.65;;;27.90;90.00;;;;;;6158277;23;20023;-85
2022/05/16 10:44:33;;;;;;;12.63;3.83;;;27.50;89.20;;;;;;6186044;23;20024;-86
2022/05/16 10:47:09;;;;;;;10.18;3.72;;;27.20;90.00;;;;;;6184564;23;20056;-86
2022/05/16 10:49:43;;;;;;;13.85;4.18;;;27.10;90.50;;;;;;6186283;23;20052;-86
2022/05/16 10:52:32;;;;;;;10.70;3.88;;;27.10;90.70;;;;;;6162716;23;20045;-85
2022/05/16 10:54:58;;;;;;;11.20;3.88;;;27.30;90.70;;;;;;6185578;23;20092;-85
2022/05/16 10:57:42;;;;;;;10.90;3.70;;;27.30;90.10;;;;;;6187836;23;20342;-85
2022/05/16 11:00:14;;;;;;;9.82;3.47;;;27.30;90.10;;;;;;6159688;23;20021;-85
2022/05/16 11:03:02;;;;;;;12.13;3.92;;;27.20;90.00;;;;;;6184624;23;20013;-85
2022/05/16 11:05:27;;;;;;;12.07;4.03;;;27.10;90.00;;;;;;6159234;23;20021;-86
2022/05/16 11:08:08;;;;;;;9.25;3.53;;;27.00;90.20;;;;;;6184553;23;20028;-85
2022/05/16 11:10:58;;;;;;;10.52;3.63;;;26.90;90.70;;;;;;6185937;23;20009;-86
2022/05/16 11:13:59;;;;;;;11.02;3.90;;;27.00;90.80;;;;;;6159593;23;20028;-85
2022/05/16 11:16:32;;;;;;;11.60;3.72;;;26.70;89.40;;;;;;6117450;23;20013;-86
2022/05/16 11:19:22;;;;;;;13.15;4.05;;;26.70;91.00;;;;;;6158610;23;20017;-86
2022/05/16 11:22:20;;;;;;;10.25;3.90;;;26.50;90.60;;;;;;6157645;23;20032;-85
2022/05/16 11:24:55;;;;;;;12.57;4.03;;;26.40;90.20;;;;;;6146421;23;20013;-85
2022/05/16 11:27:42;;;;;;;12.68;4.55;;;26.20;90.50;;;;;;6159341;23;20183;-86
2022/05/16 11:30:46;;;;;;;23.27;5.65;;;25.90;90.20;;;;;;6158823;23;20027;-86
2022/05/16 11:33:18;;;;;;;14.40;4.47;;;25.70;90.40;;;;;;6186256;23;20454;-86
2022/05/16 11:35:49;;;;;;;11.80;4.10;;;25.60;90.70;;;;;;6158854;23;20047;-86
2022/05/16 11:38:37;;;;;;;10.93;4.05;;;25.40;90.90;;;;;;6159568;23;20448;-86
2022/05/16 11:41:45;;;;;;;10.25;3.83;;;25.30;91.60;;;;;;6158837;23;20041;-86
2022/05/16 11:44:26;;;;;;;12.82;4.10;;;25.00;92.00;;;;;;6157962;23;20059;-86
2022/05/16 11:47:16;;;;;;;12.45;4.15;;;24.90;92.00;;;;;;6185319;23;20021;-86
2022/05/16 11:49:51;;;;;;;11.35;4.00;;;24.80;92.50;;;;;;6184419;23;20021;-86
2022/05/16 11:52:35;;;;;;;15.27;4.63;;;24.70;92.50;;;;;;6159059;23;20395;-86
2022/05/16 12:00:31;;;;;;;15.10;4.50;;;24.60;92.80;;;;;;6185213;23;20343;-85
2022/05/16 12:01:03;;;;;;;11.73;4.55;;;24.40;93.60;;;;;;6186231;23;20021;-86
2022/05/16 12:03:44;;;;;;;11.98;4.35;;;24.20;94.80;;;;;;6188488;23;20009;-85
2022/05/16 12:06:33;;;;;;;12.02;4.43;;;24.10;95.50;;;;;;6160855;23;20430;-85
2022/05/16 12:09:17;;;;;;;19.02;5.70;;;24.30;96.10;;;;;;6159334;23;20020;-86
2022/05/16 12:11:54;;;;;;;14.50;4.47;;;24.00;97.60;;;;;;6160281;23;20035;-86
2022/05/16 12:14:35;;;;;;;11.75;4.10;;;23.90;98.10;;;;;;6186648;23;20040;-86
2022/05/16 12:17:18;;;;;;;14.02;4.32;;;23.80;98.00;;;;;;6159379;23;20024;-86
2022/05/16 12:19:50;;;;;;;11.98;4.70;;;23.80;98.70;;;;;;6158170;23;20027;-86
2022/05/16 12:22:46;;;;;;;13.05;4.78;;;23.70;99.80;;;;;;6159174;23;20532;-85
2022/05/16 12:25:24;;;;;;;14.18;5.18;;;23.70;99.90;;;;;;6157707;23;20020;-85
2022/05/16 12:28:11;;;;;;;12.10;4.70;;;23.60;99.20;;;;;;6185338;23;20456;-85
2022/05/16 12:30:37;;;;;;;12.77;5.07;;;23.60;99.00;;;;;;6159998;23;20354;-87
2022/05/16 12:33:03;;;;;;;13.52;5.20;;;23.50;99.10;;;;;;6185843;23;20014;-86
2022/05/16 12:35:28;;;;;;;12.30;4.63;;;23.60;99.40;;;;;;6161656;23;20035;-86
2022/05/16 12:37:57;;;;;;;12.48;4.88;;;23.70;99.90;;;;;;6160964;23;20021;-86
2022/05/16 12:41:00;;;;;;;11.60;4.15;;;23.80;99.90;;;;;;6159912;23;20025;-86
2022/05/16 12:43:38;;;;;;;12.73;4.55;;;24.00;99.90;;;;;;6187182;23;20017;-86
2022/05/16 12:46:11;;;;;;;13.63;4.78;;;24.20;99.90;;;;;;6159433;23;20021;-86
2022/05/16 12:49:03;;;;;;;11.48;4.30;;;24.40;99.90;;;;;;6160459;23;20060;-86
2022/05/16 12:51:44;;;;;;;11.27;3.90;;;24.60;99.70;;;;;;6160426;23;20346;-86
2022/05/16 12:54:29;;;;;;;10.13;4.07;;;25.10;99.70;;;;;;6160049;23;20017;-86
2022/05/16 12:56:57;;;;;;;13.75;4.03;;;24.90;98.40;;;;;;6160696;23;20052;-86
2022/05/16 12:59:23;;;;;;;12.43;3.75;;;25.10;98.80;;;;;;6187022;23;20135;-86
2022/05/16 13:02:15;;;;;;;11.73;3.78;;;25.10;98.70;;;;;;6159703;23;20052;-86
2022/05/16 13:05:09;;;;;;;8.73;3.30;;;25.00;97.00;;;;;;6159543;23;20510;-86
2022/05/16 13:08:06;;;;;;;9.60;3.20;;;25.00;97.20;;;;;;6186235;23;20074;-87
2022/05/16 13:10:53;;;;;;;9.65;3.30;;;24.90;97.30;;;;;;6187260;23;20040;-86
2022/05/16 13:13:42;;;;;;;12.52;3.40;;;24.90;97.00;;;;;;6187059;23;20029;-86
2022/05/16 13:16:19;;;;;;;10.57;4.22;;;25.00;97.50;;;;;;6159430;23;20021;-86
2022/05/16 13:18:52;;;;;;;12.23;4.15;;;24.80;97.30;;;;;;6187261;23;20048;-86
2022/05/16 13:21:18;;;;;;;;;;;24.70;97.40;;;;;;6187181;23;20021;-87
2022/05/16 13:23:44;;;;;;;10.25;3.92;;;24.60;97.40;;;;;;6160385;23;20344;-87
2022/05/16 13:31:48;;;;;;;10.77;3.50;;;24.50;97.60;;;;;;6160780;23;20021;-86
2022/05/16 13:34:28;;;;;;;11.85;3.55;;;24.40;97.60;;;;;;6161217;23;20024;-86
2022/05/16 13:36:54;;;;;;;10.32;3.50;;;24.40;97.80;;;;;;6159938;23;20052;-86
2022/05/16 13:39:30;;;;;;;9.30;3.45;;;24.80;97.80;;;;;;6186293;23;20445;-86